Time;durP1;ratioP1;P1;durP2;ratioP2;P2;SDS_P1;SDS_P2;PMS_P1;PMS_P2;Temp;Humidity;BMP_temperature;BMP_pressure;BME280_temperature;BME280_humidity;BME280_pressure;Samples;Min_cycle;Max_cycle;Signal;HPM_P1;HPM_P2
2022/12/14 00:02:08;;;;;;;11.10;9.77;;;;;;;4.25;69.40;99518.88;5073475;28;20195;-55
2022/12/14 00:04:35;;;;;;;14.60;10.43;;;;;;;4.27;69.33;99513.03;5074771;28;20565;-55
2022/12/14 00:07:03;;;;;;;13.10;11.63;;;;;;;4.32;70.50;99528.47;5073360;28;20488;-55
2022/12/14 00:09:30;;;;;;;13.67;10.90;;;;;;;4.37;69.71;99524.47;5074875;28;20235;-55
2022/12/14 00:11:57;;;;;;;11.37;9.37;;;;;;;4.40;69.54;99527.09;5074740;28;20188;-55
2022/12/14 00:14:24;;;;;;;12.10;10.33;;;;;;;4.42;69.26;99526.38;5074336;28;20179;-55
2022/12/14 00:16:51;;;;;;;12.30;9.47;;;;;;;4.38;68.33;99521.97;5074208;28;20190;-55
2022/12/14 00:19:17;;;;;;;12.57;10.57;;;;;;;4.39;68.55;99525.41;5074921;28;20193;-55
2022/12/14 00:21:44;;;;;;;14.23;9.80;;;;;;;4.41;68.69;99523.78;5074057;28;20190;-56
2022/12/14 00:24:12;;;;;;;20.53;15.07;;;;;;;4.32;67.46;99523.38;5074519;28;20278;-56
2022/12/14 00:26:39;;;;;;;19.20;12.73;;;;;;;4.28;67.92;99522.41;5073978;28;20215;-56
2022/12/14 00:29:06;;;;;;;15.37;11.70;;;;;;;4.26;67.62;99529.09;5074019;28;20692;-56
2022/12/14 00:31:33;;;;;;;15.87;10.73;;;;;;;4.26;67.86;99513.84;5073764;28;20183;-56
2022/12/14 00:34:00;;;;;;;18.70;12.57;;;;;;;4.28;67.91;99519.88;5072575;28;20676;-56
2022/12/14 00:36:27;;;;;;;14.50;11.47;;;;;;;4.32;67.30;99518.31;5073632;28;20188;-56
2022/12/14 00:38:53;;;;;;;19.43;12.43;;;;;;;4.19;67.00;99524.56;5073808;28;20194;-56
2022/12/14 00:41:22;;;;;;;17.40;11.07;;;;;;;4.00;66.62;99512.78;5074252;28;20195;-56
2022/12/14 00:43:48;;;;;;;15.87;12.13;;;;;;;3.88;67.19;99507.16;5073789;28;20191;-57
2022/12/14 00:46:15;;;;;;;19.27;12.83;;;;;;;3.74;67.08;99485.38;5073509;28;20270;-56
2022/12/14 00:48:43;;;;;;;14.70;11.57;;;;;;;3.88;67.64;99509.69;5073771;28;20189;-56
2022/12/14 00:51:10;;;;;;;16.63;11.70;;;;;;;3.92;67.17;99513.25;5073889;28;20211;-56
2022/12/14 00:53:36;;;;;;;12.47;9.67;;;;;;;3.98;67.18;99510.97;5073587;28;20195;-55
2022/12/14 00:56:07;;;;;;;15.97;12.00;;;;;;;3.86;66.29;99482.50;5073509;28;20186;-54
2022/12/14 00:58:36;;;;;;;10.97;9.60;;;;;;;3.99;66.11;99513.56;5073505;28;20206;-55
2022/12/14 01:01:05;;;;;;;14.03;9.93;;;;;;;4.03;66.13;99514.56;5073199;28;20202;-55
2022/12/14 01:03:32;;;;;;;12.93;10.77;;;;;;;4.07;65.97;99502.03;5073744;28;20555;-55
2022/12/14 01:05:59;;;;;;;16.13;10.80;;;;;;;4.08;66.29;99510.53;5073232;28;20293;-55
2022/12/14 01:08:33;;;;;;;13.90;10.43;;;;;;;4.15;66.73;99510.84;5073412;28;20245;-55
2022/12/14 01:11:04;;;;;;;15.33;10.40;;;;;;;4.17;65.96;99509.22;5072494;28;20569;-56
2022/12/14 01:13:30;;;;;;;13.17;10.37;;;;;;;4.18;65.76;99508.44;5072594;28;20703;-56
2022/12/14 01:16:03;;;;;;;13.77;9.60;;;;;;;4.26;66.09;99508.75;5070676;28;20184;-55
2022/12/14 01:18:33;;;;;;;12.63;9.63;;;;;;;4.24;65.78;99505.28;5073209;28;20604;-55
2022/12/14 01:21:08;;;;;;;16.00;12.27;;;;;;;4.27;66.31;99515.59;5058656;28;20223;-55
2022/12/14 01:23:36;;;;;;;15.20;11.13;;;;;;;4.29;66.17;99523.25;5052941;28;20192;-55
2022/12/14 01:26:03;;;;;;;16.73;12.67;;;;;;;4.21;66.04;99500.06;5053485;28;20189;-55
2022/12/14 01:28:29;;;;;;;18.33;12.83;;;;;;;4.30;66.43;99517.38;5053388;28;20694;-55
2022/12/14 01:30:56;;;;;;;16.50;11.63;;;;;;;4.29;66.24;99508.88;5058169;28;20221;-55
2022/12/14 01:33:24;;;;;;;15.93;10.27;;;;;;;4.22;65.49;99506.91;5072708;28;20192;-55
2022/12/14 01:35:51;;;;;;;16.20;11.77;;;;;;;4.14;65.70;99514.22;5072569;28;20192;-55
2022/12/14 01:38:18;;;;;;;13.23;10.50;;;;;;;4.06;65.73;99502.88;5072558;28;20199;-55
2022/12/14 01:40:45;;;;;;;14.63;10.50;;;;;;;4.08;66.02;99505.47;5072798;28;20187;-55
2022/12/14 01:43:13;;;;;;;14.80;10.83;;;;;;;4.15;65.68;99521.03;5072749;28;20190;-56
2022/12/14 01:45:40;;;;;;;14.47;10.73;;;;;;;4.05;65.24;99506.19;5052529;28;20191;-56
2022/12/14 01:48:13;;;;;;;14.13;10.80;;;;;;;4.15;65.03;99528.66;5052638;28;20195;-56
2022/12/14 01:50:46;;;;;;;18.00;12.83;;;;;;;4.11;64.85;99529.34;5052280;28;20217;-56
2022/12/14 01:53:17;;;;;;;12.57;10.33;;;;;;;4.14;64.84;99528.59;5054332;28;20200;-56
2022/12/14 01:55:49;;;;;;;12.17;9.73;;;;;;;4.15;64.85;99520.16;5052528;28;20543;-56
2022/12/14 01:58:18;;;;;;;15.73;12.00;;;;;;;4.17;64.66;99529.56;5052194;28;20192;-56
2022/12/14 02:00:45;;;;;;;13.60;9.93;;;;;;;4.16;64.50;99522.78;5052424;28;20647;-55
2022/12/14 02:03:16;;;;;;;12.83;9.40;;;;;;;4.20;65.14;99526.31;5052292;28;20189;-55
2022/12/14 02:05:48;;;;;;;15.40;10.70;;;;;;;4.25;64.76;99523.94;5052256;28;20180;-55
2022/12/14 02:08:18;;;;;;;14.70;10.73;;;;;;;4.15;64.43;99526.09;5052991;28;20191;-55
2022/12/14 02:10:45;;;;;;;12.30;9.40;;;;;;;4.09;64.69;99515.69;5052412;28;20220;-55
2022/12/14 02:13:16;;;;;;;13.67;10.00;;;;;;;3.98;64.78;99495.72;5052571;28;20199;-56
2022/12/14 02:15:44;;;;;;;15.83;11.10;;;;;;;4.20;65.69;99520.34;5052150;28;20189;-55
2022/12/14 02:18:14;;;;;;;13.20;10.33;;;;;;;4.22;65.09;99526.38;5052180;28;20185;-55
2022/12/14 02:20:51;;;;;;;14.33;10.37;;;;;;;4.22;64.39;99529.78;5051985;28;20193;-55
2022/12/14 02:23:56;;;;;;;11.30;8.90;;;;;;;4.00;65.29;99506.81;5051885;28;20190;-56
2022/12/14 02:26:44;;;;;;;12.23;10.03;;;;;;;4.15;64.48;99533.72;5034684;28;20200;-56
2022/12/14 02:29:55;;;;;;;17.17;10.63;;;;;;;4.15;64.86;99535.41;5052504;28;20241;-55
2022/12/14 02:32:34;;;;;;;14.83;10.70;;;;;;;3.93;64.40;99538.72;5037033;28;20196;-55
2022/12/14 02:35:07;;;;;;;19.00;13.33;;;;;;;3.92;64.22;99519.22;5051824;28;20172;-56
2022/12/14 02:37:45;;;;;;;18.47;14.23;;;;;;;3.88;64.31;99537.66;5052242;28;20190;-56
2022/12/14 02:40:23;;;;;;;14.77;11.77;;;;;;;3.95;65.58;99526.97;5051898;28;20199;-56
2022/12/14 02:43:02;;;;;;;13.23;9.97;;;;;;;3.93;65.28;99522.59;5052064;28;20664;-55
2022/12/14 02:45:37;;;;;;;13.10;9.47;;;;;;;4.01;64.57;99532.28;5057606;28;20215;-56
2022/12/14 02:48:09;;;;;;;13.13;9.87;;;;;;;3.96;64.25;99523.59;5068030;28;20191;-56
2022/12/14 02:50:43;;;;;;;11.17;8.83;;;;;;;4.00;65.46;99535.66;5070321;28;20211;-56
2022/12/14 02:53:20;;;;;;;12.90;10.33;;;;;;;3.99;64.98;99526.28;5069034;28;20198;-55
2022/12/14 02:55:50;;;;;;;14.70;9.73;;;;;;;4.04;64.77;99526.44;5068776;28;20207;-56
2022/12/14 02:58:22;;;;;;;13.93;10.43;;;;;;;4.05;63.58;99531.63;5071299;28;20277;-57
2022/12/14 03:00:53;;;;;;;15.03;10.00;;;;;;;4.02;64.33;99541.66;5068872;28;20205;-56
2022/12/14 03:03:21;;;;;;;13.13;10.33;;;;;;;3.86;63.93;99523.16;5069509;28;20721;-56
2022/12/14 03:05:56;;;;;;;15.27;10.77;;;;;;;3.98;64.42;99527.06;5068602;28;20185;-56
2022/12/14 03:08:24;;;;;;;13.33;10.03;;;;;;;3.97;64.39;99530.44;5071465;28;20171;-56
2022/12/14 03:10:56;;;;;;;14.30;10.53;;;;;;;3.89;64.24;99520.75;5071137;28;20690;-56
2022/12/14 03:13:28;;;;;;;12.47;9.93;;;;;;;3.85;64.68;99518.84;5069181;28;20223;-56
2022/12/14 03:16:00;;;;;;;13.50;11.13;;;;;;;3.85;64.67;99519.72;5071170;28;20192;-56
2022/12/14 03:18:35;;;;;;;13.98;12.45;;;;;;;3.86;64.37;99523.16;5069970;28;20429;-56
2022/12/14 03:21:05;;;;;;;13.80;10.77;;;;;;;3.95;64.32;99519.34;5069338;28;20179;-56
2022/12/14 03:23:37;;;;;;;13.53;10.37;;;;;;;4.05;64.67;99516.38;5071052;28;20199;-56
2022/12/14 03:26:13;;;;;;;11.83;9.43;;;;;;;3.84;64.87;99477.34;5071001;28;20188;-55
2022/12/14 03:28:45;;;;;;;13.57;10.33;;;;;;;3.96;65.15;99507.47;5069063;28;20248;-55
2022/12/14 03:31:15;;;;;;;13.70;9.53;;;;;;;4.00;65.54;99514.44;5071463;28;20265;-56
2022/12/14 03:33:46;;;;;;;13.83;10.70;;;;;;;4.05;64.60;99510.41;5071222;28;20707;-56
2022/12/14 03:36:20;;;;;;;12.47;10.27;;;;;;;4.04;64.81;99511.19;5075427;28;20194;-56
2022/12/14 03:38:50;;;;;;;13.10;9.53;;;;;;;3.97;64.45;99517.72;5075192;28;20538;-56
2022/12/14 03:41:26;;;;;;;14.83;10.10;;;;;;;3.37;64.00;99436.34;5074976;28;20212;-56
2022/12/14 03:44:04;;;;;;;14.20;9.97;;;;;;;3.91;64.24;99540.31;5075028;28;20183;-56
2022/12/14 03:46:40;;;;;;;13.57;10.00;;;;;;;3.94;64.51;99540.47;5075161;28;20187;-56
2022/12/14 03:49:17;;;;;;;13.17;10.47;;;;;;;3.99;64.71;99536.44;5074835;28;20541;-56
2022/12/14 03:51:55;;;;;;;11.83;9.77;;;;;;;4.00;64.58;99532.22;5075091;28;20573;-56
2022/12/14 03:54:31;;;;;;;14.90;11.07;;;;;;;3.99;64.25;99528.81;5074580;28;20241;-56
2022/12/14 03:57:05;;;;;;;17.23;11.63;;;;;;;3.88;64.93;99524.06;5074652;28;20187;-56
2022/12/14 03:59:39;;;;;;;12.67;10.50;;;;;;;3.67;64.90;99503.69;5074842;28;20180;-56
2022/12/14 04:02:11;;;;;;;12.47;9.67;;;;;;;3.70;65.29;99529.25;5074672;28;20719;-55
2022/12/14 04:04:46;;;;;;;13.57;10.67;;;;;;;3.68;65.40;99524.91;5074707;28;20195;-56
2022/12/14 04:07:19;;;;;;;18.17;11.37;;;;;;;3.71;65.71;99522.50;5074574;28;20312;-56
2022/12/14 04:09:52;;;;;;;13.93;9.90;;;;;;;3.69;66.12;99512.25;5074726;28;20192;-55
2022/12/14 04:20:49;;;;;;;16.90;10.63;;;;;;;3.62;66.21;99515.34;5074155;28;20600;-55
2022/12/14 04:26:03;;;;;;;14.27;10.50;;;;;;;3.68;66.54;99509.66;5074425;28;20188;-55
2022/12/14 04:26:11;;;;;;;14.90;10.23;;;;;;;3.68;67.00;99505.41;5074052;28;20695;-55
2022/12/14 04:31:38;;;;;;;15.23;10.33;;;;;;;3.64;66.85;99520.47;5035450;28;20218;-56
2022/12/14 04:34:07;;;;;;;14.73;10.53;;;;;;;3.63;67.07;99511.97;5074038;28;20184;-55
2022/12/14 04:36:39;;;;;;;15.47;10.87;;;;;;;3.63;66.57;99511.09;5073710;28;20184;-55
2022/12/14 04:39:08;;;;;;;13.53;10.90;;;;;;;3.65;66.28;99512.94;5074137;28;20191;-55
2022/12/14 04:41:40;;;;;;;14.23;11.03;;;;;;;3.68;65.95;99507.13;5073929;28;20214;-55
2022/12/14 04:44:12;;;;;;;16.80;10.77;;;;;;;3.64;66.39;99498.50;5073807;28;20709;-55
2022/12/14 04:46:40;;;;;;;12.37;10.33;;;;;;;3.67;67.19;99508.78;5073764;28;20183;-55
2022/12/14 04:49:12;;;;;;;17.97;10.90;;;;;;;3.58;67.77;99509.25;5073741;28;20188;-56
2022/12/14 04:51:49;;;;;;;13.53;10.33;;;;;;;3.53;67.71;99503.09;5074049;28;20216;-56
2022/12/14 04:54:25;;;;;;;15.67;10.80;;;;;;;3.23;67.25;99478.03;5073864;28;20183;-56
2022/12/14 04:56:57;;;;;;;16.93;10.37;;;;;;;3.44;68.42;99523.00;5073600;28;20183;-56
2022/12/14 04:59:25;;;;;;;15.47;11.43;;;;;;;3.42;68.19;99536.44;5072918;28;20601;-56
2022/12/14 05:02:01;;;;;;;15.87;10.87;;;;;;;3.22;69.19;99527.91;5073218;28;20183;-56
2022/12/14 05:04:41;;;;;;;13.63;10.43;;;;;;;3.15;69.72;99525.03;5073465;28;20241;-56
2022/12/14 05:07:20;;;;;;;14.23;11.60;;;;;;;3.02;70.63;99532.91;5072562;28;20188;-57
2022/12/14 05:09:55;;;;;;;14.77;11.23;;;;;;;2.93;71.14;99507.97;5053865;28;20188;-55
2022/12/14 05:12:27;;;;;;;18.20;12.43;;;;;;;2.96;72.19;99520.81;5063973;28;20214;-56
2022/12/14 05:15:02;;;;;;;22.20;13.13;;;;;;;2.76;73.45;99519.00;5073238;28;20189;-56
2022/12/14 05:17:29;;;;;;;16.77;12.27;;;;;;;2.59;74.96;99520.72;5073083;28;20183;-55
2022/12/14 05:19:56;;;;;;;15.20;11.50;;;;;;;2.79;75.81;99535.22;5072995;28;20191;-56
2022/12/14 05:22:24;;;;;;;15.93;11.20;;;;;;;2.78;76.48;99533.47;5072966;28;20187;-56
2022/12/14 05:24:51;;;;;;;14.00;10.97;;;;;;;2.88;76.67;99528.03;5072625;28;20626;-56
2022/12/14 05:27:17;;;;;;;15.67;11.00;;;;;;;2.77;77.03;99541.91;5073158;28;20220;-56
2022/12/14 05:29:44;;;;;;;15.53;10.70;;;;;;;2.62;77.30;99536.09;5072573;28;20191;-56
2022/12/14 05:32:12;;;;;;;17.07;11.23;;;;;;;2.67;77.81;99537.19;5072715;28;20268;-56
2022/12/14 05:34:39;;;;;;;16.20;11.83;;;;;;;2.67;77.67;99532.09;5072593;28;20183;-56
2022/12/14 05:37:06;;;;;;;19.17;13.70;;;;;;;2.73;78.37;99526.44;5072383;28;20573;-56
2022/12/14 05:39:34;;;;;;;19.53;12.37;;;;;;;2.72;76.93;99532.34;5072716;28;20183;-56
2022/12/14 05:42:01;;;;;;;18.33;12.17;;;;;;;2.61;76.76;99516.59;5072551;28;20573;-56
2022/12/14 05:44:27;;;;;;;19.47;13.30;;;;;;;2.70;76.80;99550.00;5072489;28;20198;-56
2022/12/14 05:46:54;;;;;;;15.77;12.23;;;;;;;2.68;76.76;99555.81;5072587;28;20534;-56
2022/12/14 05:49:21;;;;;;;16.30;11.90;;;;;;;2.72;77.00;99552.63;5072488;28;20188;-56
2022/12/14 05:51:49;;;;;;;18.10;12.90;;;;;;;2.70;77.22;99559.28;5072408;28;20207;-56
2022/12/14 05:54:15;;;;;;;17.07;11.97;;;;;;;2.70;76.85;99565.22;5072057;28;20195;-55
2022/12/14 05:56:44;;;;;;;20.53;12.73;;;;;;;2.76;76.26;99575.69;5071538;28;20187;-55
2022/12/14 05:59:14;;;;;;;16.67;12.80;;;;;;;2.87;76.31;99573.66;5052125;28;20192;-56
2022/12/14 06:01:41;;;;;;;19.07;13.87;;;;;;;2.97;75.75;99571.59;5052427;28;20196;-55
2022/12/14 06:04:08;;;;;;;23.73;15.00;;;;;;;3.07;74.70;99564.44;5052171;28;20222;-56
2022/12/14 06:06:34;;;;;;;18.00;13.70;;;;;;;3.14;74.52;99559.72;5052251;28;20195;-56
2022/12/14 06:09:01;;;;;;;22.83;14.03;;;;;;;3.22;74.04;99567.66;5052208;28;20638;-56
2022/12/14 06:11:28;;;;;;;20.07;13.43;;;;;;;3.28;72.97;99562.88;5052162;28;20220;-55
2022/12/14 06:13:56;;;;;;;19.00;13.30;;;;;;;3.19;72.75;99565.84;5052160;28;20195;-55
2022/12/14 06:16:25;;;;;;;19.00;14.00;;;;;;;3.18;73.22;99573.41;5051467;28;20255;-55
2022/12/14 06:18:53;;;;;;;19.67;14.47;;;;;;;3.26;73.79;99575.50;5067078;28;20188;-55
2022/12/14 06:21:22;;;;;;;19.13;14.13;;;;;;;3.28;73.36;99581.53;5071778;28;20192;-55
2022/12/14 06:23:49;;;;;;;23.03;15.83;;;;;;;3.38;73.31;99581.13;5072127;28;20183;-55
2022/12/14 06:26:16;;;;;;;21.67;14.03;;;;;;;3.42;72.89;99579.63;5071447;28;20186;-55
2022/12/14 06:28:43;;;;;;;20.07;13.97;;;;;;;3.48;72.54;99573.16;5071827;28;20270;-55
2022/12/14 06:31:16;;;;;;;23.00;14.23;;;;;;;3.26;73.20;99545.06;5071562;28;20222;-56
2022/12/14 06:33:43;;;;;;;17.87;13.57;;;;;;;3.45;72.82;99569.59;5072218;28;20600;-55
2022/12/14 06:36:17;;;;;;;23.17;14.83;;;;;;;3.59;72.38;99581.25;5072180;28;20206;-56
2022/12/14 06:38:44;;;;;;;17.27;13.17;;;;;;;3.72;71.76;99580.13;5071721;28;20287;-56
2022/12/14 06:41:11;;;;;;;18.73;12.60;;;;;;;3.81;70.68;99577.97;5071480;28;20662;-56
2022/12/14 06:43:37;;;;;;;16.30;12.33;;;;;;;3.87;69.65;99589.31;5071578;28;20186;-57
2022/12/14 06:46:07;;;;;;;17.37;12.07;;;;;;;3.87;69.18;99596.06;5071305;28;20650;-56
2022/12/14 06:48:35;;;;;;;19.37;14.33;;;;;;;3.88;69.46;99595.22;5071340;28;20207;-56
2022/12/14 06:51:03;;;;;;;22.07;14.00;;;;;;;3.94;69.34;99605.66;5071452;28;20215;-56
2022/12/14 06:53:31;;;;;;;18.73;13.17;;;;;;;3.96;68.96;99597.31;5071652;28;20188;-56
2022/12/14 06:56:06;;;;;;;19.93;14.73;;;;;;;4.01;68.46;99595.81;5071370;28;20193;-56
2022/12/14 06:58:33;;;;;;;18.00;13.00;;;;;;;4.08;66.31;99602.94;5071970;28;20248;-56
2022/12/14 07:01:02;;;;;;;15.87;13.23;;;;;;;4.13;65.36;99600.56;5071058;28;20191;-57
2022/12/14 07:03:28;;;;;;;15.13;11.53;;;;;;;4.28;64.66;99608.00;5071165;28;20196;-55
2022/12/14 07:05:57;;;;;;;17.00;11.73;;;;;;;4.43;63.33;99604.41;5071489;28;20246;-56
2022/12/14 07:08:24;;;;;;;18.03;13.40;;;;;;;4.46;62.16;99584.19;5071361;28;20187;-57
2022/12/14 07:10:51;;;;;;;18.40;13.03;;;;;;;4.89;61.13;99611.41;5074429;28;20191;-55
2022/12/14 07:13:18;;;;;;;15.30;12.80;;;;;;;5.08;59.73;99622.38;5075353;28;20217;-56
2022/12/14 07:15:51;;;;;;;27.93;13.83;;;;;;;5.23;59.11;99617.00;5075015;28;20196;-56
2022/12/14 07:18:18;;;;;;;16.90;12.73;;;;;;;5.37;58.24;99618.44;5075432;28;20250;-55
2022/12/14 07:20:54;;;;;;;19.73;15.00;;;;;;;5.49;57.13;99613.81;5074879;28;20660;-56
2022/12/14 07:23:23;;;;;;;24.33;15.23;;;;;;;5.59;56.06;99608.25;5074434;28;20198;-55
2022/12/14 07:25:50;;;;;;;16.60;13.40;;;;;;;5.47;55.17;99577.19;5073674;28;20270;-56
2022/12/14 07:28:16;;;;;;;19.93;13.13;;;;;;;5.65;55.28;99592.31;5074758;28;20300;-56
2022/12/14 07:30:43;;;;;;;21.43;13.40;;;;;;;5.77;55.23;99592.75;5074898;28;20588;-56
2022/12/14 07:33:10;;;;;;;17.23;12.63;;;;;;;5.83;53.68;99593.84;5074704;28;20190;-56
2022/12/14 07:35:37;;;;;;;17.50;12.43;;;;;;;5.98;53.33;99600.34;5074834;28;20641;-57
2022/12/14 07:38:03;;;;;;;17.87;11.60;;;;;;;6.08;52.56;99600.72;5074540;28;20243;-58
2022/12/14 07:40:34;;;;;;;14.90;12.13;;;;;;;6.01;51.68;99606.44;5074000;28;20200;-56
2022/12/14 07:43:01;;;;;;;18.77;12.20;;;;;;;5.90;51.94;99595.84;5074740;28;20192;-57
2022/12/14 07:45:28;;;;;;;15.13;11.27;;;;;;;5.92;53.53;99606.09;5075414;28;20211;-56
2022/12/14 07:47:55;;;;;;;15.30;11.10;;;;;;;5.88;52.08;99600.00;5074457;28;20190;-56
2022/12/14 07:50:22;;;;;;;17.23;11.60;;;;;;;5.91;52.35;99596.69;5074623;28;20184;-57
2022/12/14 07:52:48;;;;;;;20.40;13.63;;;;;;;5.83;51.67;99605.72;5073928;28;20207;-56
2022/12/14 07:55:15;;;;;;;18.43;11.00;;;;;;;5.76;51.75;99599.53;5073720;28;20191;-56
2022/12/14 07:57:44;;;;;;;12.67;10.43;;;;;;;5.80;51.98;99606.47;5073972;28;20279;-56
2022/12/14 08:00:12;;;;;;;13.73;10.73;;;;;;;5.80;52.46;99618.34;5074386;28;20181;-56
2022/12/14 08:02:38;;;;;;;17.17;13.07;;;;;;;5.79;51.99;99626.81;5074072;28;20654;-56
2022/12/14 08:05:06;;;;;;;17.37;13.63;;;;;;;5.27;53.58;99556.06;5074283;28;20187;-57
2022/12/14 08:07:33;;;;;;;20.20;12.40;;;;;;;5.78;53.24;99633.59;5074324;28;20188;-56
2022/12/14 08:10:00;;;;;;;13.53;10.97;;;;;;;5.92;53.28;99641.78;5074723;28;20183;-56
2022/12/14 08:12:26;;;;;;;16.07;10.40;;;;;;;5.94;52.08;99637.59;5069488;28;20208;-56
2022/12/14 08:14:55;;;;;;;12.47;10.33;;;;;;;6.03;52.52;99634.53;5071269;28;20760;-56
2022/12/14 08:17:21;;;;;;;15.32;12.05;;;;;;;6.04;53.14;99634.59;5072957;28;20438;-56
2022/12/14 08:19:48;;;;;;;16.20;12.77;;;;;;;6.11;52.93;99628.88;5053605;28;20558;-56
2022/12/14 08:22:15;;;;;;;14.67;11.47;;;;;;;6.16;52.39;99627.38;5053692;28;20718;-56
2022/12/14 08:24:42;;;;;;;14.53;11.77;;;;;;;6.17;52.87;99618.03;5053965;28;20194;-56
2022/12/14 08:27:08;;;;;;;12.67;10.93;;;;;;;6.30;52.84;99630.41;5053529;28;20236;-56
2022/12/14 08:29:35;;;;;;;16.47;13.70;;;;;;;6.32;52.72;99634.75;5053764;28;20192;-55
2022/12/14 08:32:04;;;;;;;18.27;12.90;;;;;;;6.38;52.20;99644.28;5053661;28;20586;-55
2022/12/14 08:34:30;;;;;;;16.97;13.07;;;;;;;6.45;52.10;99638.59;5053573;28;20207;-56
2022/12/14 08:36:57;;;;;;;19.63;13.13;;;;;;;6.47;50.86;99622.53;5053502;28;20181;-56
2022/12/14 08:39:24;;;;;;;15.50;13.13;;;;;;;6.51;51.56;99624.34;5053460;28;20191;-56
2022/12/14 08:41:51;;;;;;;14.67;11.23;;;;;;;6.61;50.22;99637.44;5053495;28;20188;-55
2022/12/14 08:44:18;;;;;;;12.87;10.97;;;;;;;6.66;49.98;99631.69;5053534;28;20245;-56
2022/12/14 08:46:45;;;;;;;16.30;11.03;;;;;;;6.70;49.95;99625.00;5059981;28;20184;-56
2022/12/14 08:49:13;;;;;;;13.20;10.87;;;;;;;6.63;50.18;99626.47;5070419;28;21725;-57
2022/12/14 08:51:40;;;;;;;15.37;11.57;;;;;;;6.71;50.27;99631.81;5072801;28;20255;-58
2022/12/14 08:54:07;;;;;;;12.40;11.03;;;;;;;6.69;49.82;99638.56;5070917;28;20188;-57
2022/12/14 08:56:34;;;;;;;15.13;10.77;;;;;;;6.77;50.18;99632.03;5072775;28;20196;-56
2022/12/14 08:59:01;;;;;;;12.30;10.47;;;;;;;6.64;49.95;99640.09;5073308;28;20195;-56
2022/12/14 09:01:29;;;;;;;14.43;11.70;;;;;;;6.59;49.32;99628.88;5072881;28;20192;-56
2022/12/14 09:03:56;;;;;;;12.90;10.83;;;;;;;6.52;50.15;99625.22;5072881;28;20214;-56
2022/12/14 09:06:26;;;;;;;13.13;9.97;;;;;;;6.58;50.42;99627.13;5072938;28;20197;-56
2022/12/14 09:08:54;;;;;;;12.67;10.23;;;;;;;6.56;49.43;99621.09;5073012;28;20635;-56
2022/12/14 09:11:22;;;;;;;14.10;11.20;;;;;;;6.71;48.79;99613.94;5073180;28;20190;-55
2022/12/14 09:13:52;;;;;;;14.97;11.00;;;;;;;6.71;49.71;99613.94;5072970;28;20181;-56
2022/12/14 09:16:21;;;;;;;13.03;10.43;;;;;;;6.87;48.73;99621.28;5072897;28;20191;-56
2022/12/14 09:18:49;;;;;;;11.70;9.87;;;;;;;7.03;47.72;99623.53;5072394;28;20674;-57
2022/12/14 09:21:16;;;;;;;15.83;10.90;;;;;;;6.95;48.05;99619.88;5072445;28;20192;-57
2022/12/14 09:23:45;;;;;;;11.60;10.30;;;;;;;6.79;47.76;99613.38;5072523;28;20189;-56
2022/12/14 09:26:14;;;;;;;16.30;10.43;;;;;;;6.46;48.45;99596.94;5072280;28;20661;-54
2022/12/14 09:28:42;;;;;;;15.40;11.47;;;;;;;6.47;50.19;99591.91;5072669;28;20183;-54
2022/12/14 09:31:12;;;;;;;14.17;11.27;;;;;;;6.79;49.85;99584.41;5072294;28;20193;-56
2022/12/14 09:33:39;;;;;;;16.47;12.67;;;;;;;6.97;49.39;99559.50;5069239;28;20213;-57
2022/12/14 09:36:09;;;;;;;17.83;12.57;;;;;;;6.97;49.24;99550.16;5064242;28;20206;-54
2022/12/14 09:38:42;;;;;;;20.20;11.53;;;;;;;6.67;49.60;99554.28;5052350;28;20199;-54
2022/12/14 09:41:23;;;;;;;14.90;10.07;;;;;;;6.28;50.14;99560.59;5071419;28;20272;-58
2022/12/14 09:43:56;;;;;;;14.57;10.40;;;;;;;6.31;50.27;99559.03;5072862;28;20581;-59
2022/12/14 09:46:36;;;;;;;16.43;10.47;;;;;;;6.33;50.59;99564.19;5062844;28;20213;-59
2022/12/14 09:49:03;;;;;;;11.97;9.73;;;;;;;6.23;50.38;99555.34;5052340;28;20200;-57
2022/12/14 09:51:35;;;;;;;16.17;11.23;;;;;;;6.32;51.08;99562.44;5050741;28;20181;-57
2022/12/14 09:54:06;;;;;;;16.17;11.23;;;;;;;6.40;50.77;99551.66;5050634;28;20191;-58
2022/12/14 09:56:38;;;;;;;13.23;11.10;;;;;;;6.24;51.51;99559.63;5031533;28;20193;-57
2022/12/14 09:59:05;;;;;;;14.20;10.67;;;;;;;5.92;51.94;99555.97;5050138;28;20184;-58
2022/12/14 10:01:50;;;;;;;14.90;11.67;;;;;;;5.51;52.53;99532.31;5051005;28;20187;-56
2022/12/14 10:04:29;;;;;;;12.87;10.47;;;;;;;5.69;52.93;99541.50;5051116;28;20639;-57
2022/12/14 10:07:05;;;;;;;15.60;11.10;;;;;;;5.99;52.60;99535.78;5051560;28;20272;-57
2022/12/14 10:09:45;;;;;;;17.42;13.77;;;;;;;5.99;52.04;99516.22;5050355;28;20439;-57
2022/12/14 10:12:23;;;;;;;13.83;11.37;;;;;;;6.23;52.00;99542.59;5049986;28;20236;-57
2022/12/14 10:15:00;;;;;;;15.70;12.30;;;;;;;6.63;52.33;99529.47;5049479;28;20281;-57
2022/12/14 10:17:39;;;;;;;15.10;12.47;;;;;;;6.73;51.09;99535.75;5050394;28;20219;-57
2022/12/14 10:20:16;;;;;;;18.97;12.53;;;;;;;6.82;51.48;99553.88;5051138;28;20193;-58
2022/12/14 10:22:48;;;;;;;13.90;11.50;;;;;;;6.91;51.69;99560.16;5051856;28;20198;-57
2022/12/14 10:25:18;;;;;;;13.43;11.73;;;;;;;7.02;50.51;99553.72;5051870;28;20578;-57
2022/12/14 10:27:52;;;;;;;16.17;11.93;;;;;;;7.21;50.24;99547.47;5051747;28;20226;-58
2022/12/14 10:30:20;;;;;;;14.30;10.73;;;;;;;7.27;49.59;99564.66;5051676;28;20186;-57
2022/12/14 10:32:51;;;;;;;17.10;12.20;;;;;;;7.10;50.42;99546.28;5051638;28;20209;-58
2022/12/14 10:35:19;;;;;;;13.23;11.43;;;;;;;7.01;51.30;99538.31;5051890;28;20190;-57
2022/12/14 10:37:52;;;;;;;14.03;11.30;;;;;;;7.29;49.95;99525.56;5051378;28;20187;-58
2022/12/14 10:40:26;;;;;;;15.00;12.57;;;;;;;7.24;49.53;99508.34;5051269;28;20190;-57
2022/12/14 10:43:16;;;;;;;14.73;12.33;;;;;;;6.89;50.78;99532.84;5052053;28;20193;-57
2022/12/14 10:45:50;;;;;;;15.10;11.70;;;;;;;7.00;50.67;99517.00;5047024;28;20214;-56
2022/12/14 10:48:36;;;;;;;16.93;13.13;;;;;;;6.66;51.30;99483.63;5055685;28;20186;-58
2022/12/14 10:51:07;;;;;;;14.37;10.97;;;;;;;6.79;50.76;99467.84;5055754;28;20191;-57
2022/12/14 10:53:39;;;;;;;15.73;11.97;;;;;;;7.11;51.29;99484.16;5055454;28;20225;-58
2022/12/14 10:56:13;;;;;;;17.03;11.73;;;;;;;7.28;50.29;99488.03;5055646;28;20199;-58
2022/12/14 10:58:41;;;;;;;16.57;11.90;;;;;;;7.33;49.74;99480.53;5055576;28;20196;-58
2022/12/14 11:01:13;;;;;;;12.63;11.33;;;;;;;7.42;49.75;99483.31;5056158;28;20195;-58
2022/12/14 11:03:43;;;;;;;16.30;12.20;;;;;;;7.49;49.29;99483.56;5055255;28;20228;-57
2022/12/14 11:06:16;;;;;;;17.20;12.17;;;;;;;7.65;48.92;99484.84;5055433;28;20546;-58
2022/12/14 11:08:45;;;;;;;21.93;14.73;;;;;;;7.76;49.15;99483.44;5055488;28;20183;-58
2022/12/14 11:11:16;;;;;;;16.03;12.73;;;;;;;7.90;48.48;99483.81;5054924;28;20190;-57
2022/12/14 11:13:53;;;;;;;16.23;12.47;;;;;;;7.87;48.54;99471.81;5055072;28;20303;-58
2022/12/14 11:16:33;;;;;;;16.93;11.53;;;;;;;7.78;48.37;99457.91;5054749;28;20677;-58
2022/12/14 11:19:03;;;;;;;14.85;13.10;;;;;;;7.53;49.13;99449.56;5054795;28;20435;-58
2022/12/14 11:21:33;;;;;;;16.70;12.07;;;;;;;7.61;49.33;99445.53;5054990;28;20279;-57
2022/12/14 11:24:00;;;;;;;19.20;13.10;;;;;;;7.48;49.66;99445.16;5054816;28;20190;-57
2022/12/14 11:26:32;;;;;;;18.37;12.80;;;;;;;7.41;50.54;99440.72;5054809;28;20515;-57
2022/12/14 11:29:02;;;;;;;14.87;11.77;;;;;;;7.57;50.07;99445.41;5054741;28;20187;-57
2022/12/14 11:31:34;;;;;;;11.90;10.20;;;;;;;7.53;49.23;99447.03;5054931;28;20189;-57
2022/12/14 11:34:04;;;;;;;15.17;11.10;;;;;;;7.52;49.17;99442.75;5054882;28;20265;-58
2022/12/14 11:36:35;;;;;;;16.15;12.85;;;;;;;7.85;49.31;99442.78;5053670;28;20457;-58
2022/12/14 11:39:06;;;;;;;15.70;12.37;;;;;;;8.10;48.31;99442.53;5054942;28;20270;-58
2022/12/14 11:41:35;;;;;;;17.47;10.73;;;;;;;7.97;47.83;99442.19;5054551;28;20249;-57
2022/12/14 11:44:06;;;;;;;16.13;10.50;;;;;;;8.19;47.76;99435.09;5054512;28;20195;-57
2022/12/14 11:46:52;;;;;;;13.47;10.60;;;;;;;8.03;47.38;99433.00;5054813;28;20190;-57
2022/12/14 11:49:26;;;;;;;15.90;10.93;;;;;;;7.81;47.89;99433.28;5054883;28;20237;-57
2022/12/14 11:52:02;;;;;;;15.23;10.70;;;;;;;7.86;48.20;99433.38;5054419;28;20186;-58
2022/12/14 11:54:29;;;;;;;11.73;10.17;;;;;;;7.84;48.55;99441.03;5054484;28;20222;-57